Time;durP1;ratioP1;P1;durP2;ratioP2;P2;SDS_P1;SDS_P2;PMS_P1;PMS_P2;Temp;Humidity;BMP_temperature;BMP_pressure;BME280_temperature;BME280_humidity;BME280_pressure;Samples;Min_cycle;Max_cycle;Signal;HPM_P1;HPM_P2
2023/04/26 00:03:19;;;;;;;2.13;1.23;;;;;;;-143.99;100.00;64180.81;6132390;28;20231;-76
2023/04/26 00:06:40;;;;;;;1.87;1.10;;;;;;;-143.99;100.00;64180.81;6145421;28;20633;-80
2023/04/26 00:10:01;;;;;;;2.53;1.43;;;;;;;-143.99;100.00;64180.81;6135462;28;21016;-78
2023/04/26 00:13:22;;;;;;;1.50;1.23;;;;;;;-143.99;100.00;64180.81;6126502;28;20243;-77
2023/04/26 00:16:44;;;;;;;3.47;1.87;;;;;;;-143.99;100.00;64180.81;6142967;28;20250;-77
2023/04/26 00:20:09;;;;;;;1.20;1.20;;;;;;;-143.99;100.00;64180.81;6135556;28;20247;-78
2023/04/26 00:23:30;;;;;;;5.40;1.47;;;;;;;-143.99;100.00;64180.81;6128139;28;20234;-77
2023/04/26 00:26:54;;;;;;;2.07;1.40;;;;;;;-143.99;100.00;64180.81;6150620;28;20226;-78
2023/04/26 00:30:15;;;;;;;2.70;2.23;;;;;;;-143.99;100.00;64180.81;6141984;28;20602;-77
2023/04/26 00:33:38;;;;;;;2.23;1.73;;;;;;;-143.99;100.00;64180.81;6134602;28;20242;-77
2023/04/26 00:36:59;;;;;;;1.80;1.40;;;;;;;-143.99;100.00;64180.81;6141975;28;20239;-78
2023/04/26 00:40:19;;;;;;;2.53;2.20;;;;;;;-143.99;100.00;64180.81;6143030;28;20226;-76
2023/04/26 00:43:41;;;;;;;5.10;1.20;;;;;;;-143.99;100.00;64180.81;6138568;28;20288;-78
2023/04/26 00:47:02;;;;;;;12.53;1.80;;;;;;;-143.99;100.00;64180.81;6145565;28;20235;-78
2023/04/26 00:50:24;;;;;;;1.13;1.03;;;;;;;-143.99;100.00;64180.81;6143970;28;20230;-75
2023/04/26 00:53:45;;;;;;;1.40;1.30;;;;;;;-143.99;100.00;64180.81;6146008;28;20234;-76
2023/04/26 00:57:08;;;;;;;2.77;1.77;;;;;;;-143.99;100.00;64180.81;6138911;28;20310;-76
2023/04/26 01:00:29;;;;;;;1.00;1.00;;;;;;;-143.99;100.00;64180.81;6136091;28;20501;-76
2023/04/26 01:03:51;;;;;;;1.50;0.80;;;;;;;-143.99;100.00;64180.81;6134338;28;20233;-77
2023/04/26 01:07:16;;;;;;;1.20;1.00;;;;;;;-143.99;100.00;64180.81;6136998;28;20618;-77
2023/04/26 01:10:37;;;;;;;2.03;1.33;;;;;;;-143.99;100.00;64180.81;6131716;28;20239;-77
2023/04/26 01:13:58;;;;;;;3.73;1.10;;;;;;;-143.99;100.00;64180.81;6130851;28;20232;-76
2023/04/26 01:17:18;;;;;;;4.33;1.90;;;;;;;-143.99;100.00;64180.81;6150893;28;20232;-78
2023/04/26 01:20:40;;;;;;;1.70;1.40;;;;;;;-143.99;100.00;64180.81;6138965;28;20424;-77
2023/04/26 01:24:03;;;;;;;5.57;1.97;;;;;;;-143.99;100.00;64180.81;6147798;28;20231;-77
2023/04/26 01:27:24;;;;;;;13.17;2.70;;;;;;;-143.99;100.00;64180.81;6142954;28;20239;-78
2023/04/26 01:30:45;;;;;;;4.20;1.83;;;;;;;-143.99;100.00;64180.81;6129773;28;20239;-77
2023/04/26 01:34:06;;;;;;;2.03;1.33;;;;;;;-143.99;100.00;64180.81;6127053;28;21179;-75
2023/04/26 01:37:26;;;;;;;2.30;1.30;;;;;;;-143.99;100.00;64180.81;6132560;28;20235;-75
2023/04/26 01:40:49;;;;;;;1.80;1.70;;;;;;;-143.99;100.00;64180.81;6143038;28;20238;-77
2023/04/26 01:44:10;;;;;;;1.63;1.47;;;;;;;-143.99;100.00;64180.81;6148352;28;23209;-77
2023/04/26 01:47:31;;;;;;;1.97;1.87;;;;;;;-143.99;100.00;64180.81;6131941;28;20235;-76
2023/04/26 01:50:52;;;;;;;3.77;2.43;;;;;;;-143.99;100.00;64180.81;6137217;28;20523;-78
2023/04/26 01:54:12;;;;;;;4.27;1.70;;;;;;;-143.99;100.00;64180.81;6153498;28;20612;-78
2023/04/26 01:57:37;;;;;;;4.10;1.97;;;;;;;-143.99;100.00;64180.81;6148250;28;20239;-76
2023/04/26 02:01:05;;;;;;;5.37;1.30;;;;;;;-143.99;100.00;64180.81;6136131;28;20330;-76
2023/04/26 02:04:28;;;;;;;3.20;1.23;;;;;;;-143.99;100.00;64180.81;6144160;28;20526;-76
2023/04/26 02:07:49;;;;;;;1.83;1.67;;;;;;;-143.99;100.00;64180.81;6152953;28;20227;-77
2023/04/26 02:11:10;;;;;;;1.30;1.20;;;;;;;-143.99;100.00;64180.81;6144732;28;21084;-75
2023/04/26 02:14:33;;;;;;;6.13;1.50;;;;;;;-143.99;100.00;64180.81;6134507;28;20264;-75
2023/04/26 02:17:54;;;;;;;4.67;1.40;;;;;;;-143.99;100.00;64180.81;6139184;28;20227;-76
2023/04/26 02:21:16;;;;;;;1.70;1.60;;;;;;;-143.99;100.00;64180.81;6149198;28;20243;-77
2023/04/26 02:24:37;;;;;;;5.47;1.67;;;;;;;-143.99;100.00;64180.81;6133689;28;20223;-76
2023/04/26 02:27:58;;;;;;;2.27;1.60;;;;;;;-143.99;100.00;64180.81;6144989;28;20227;-75
2023/04/26 02:31:21;;;;;;;1.80;1.70;;;;;;;-143.99;100.00;64180.81;6139490;28;20309;-75
2023/04/26 02:34:42;;;;;;;8.70;2.07;;;;;;;-143.99;100.00;64180.81;6136855;28;20234;-77
2023/04/26 02:38:03;;;;;;;3.73;1.83;;;;;;;-143.99;100.00;64180.81;6141101;28;22122;-75
2023/04/26 02:41:25;;;;;;;15.33;1.83;;;;;;;-143.99;100.00;64180.81;6139831;28;20608;-77
2023/04/26 02:44:46;;;;;;;1.40;1.00;;;;;;;-143.99;100.00;64180.81;6150648;28;20238;-77
2023/04/26 02:48:09;;;;;;;2.50;1.40;;;;;;;-143.99;100.00;64180.81;6145592;28;20412;-76
2023/04/26 02:51:31;;;;;;;2.30;1.00;;;;;;;-143.99;100.00;64180.81;6145805;28;20235;-76
2023/04/26 02:54:52;;;;;;;1.57;1.47;;;;;;;-143.99;100.00;64180.81;6117063;28;20239;-76
2023/04/26 02:58:13;;;;;;;2.23;2.10;;;;;;;-143.99;100.00;64180.81;6139172;28;20239;-75
2023/04/26 03:01:34;;;;;;;1.73;1.60;;;;;;;-143.99;100.00;64180.81;6139747;28;20637;-76
2023/04/26 03:04:57;;;;;;;8.10;2.20;;;;;;;-143.99;100.00;64180.81;6142310;28;20619;-75
2023/04/26 03:08:17;;;;;;;5.23;1.40;;;;;;;-143.99;100.00;64180.81;6140972;28;21156;-76
2023/04/26 03:11:39;;;;;;;3.53;2.10;;;;;;;-143.99;100.00;64180.81;6129169;28;20311;-75
2023/04/26 03:15:01;;;;;;;2.37;2.00;;;;;;;-143.99;100.00;64180.81;6125980;28;20317;-75
2023/04/26 03:18:22;;;;;;;5.47;2.87;;;;;;;-143.99;100.00;64180.81;6140724;28;20317;-75
2023/04/26 03:21:45;;;;;;;2.20;1.47;;;;;;;-143.99;100.00;64180.81;6141491;28;20239;-75
2023/04/26 03:25:07;;;;;;;12.47;3.27;;;;;;;-143.99;100.00;64180.81;6145481;28;20241;-77
2023/04/26 03:28:29;;;;;;;1.83;1.50;;;;;;;-143.99;100.00;64180.81;6142137;28;20258;-76
2023/04/26 03:31:50;;;;;;;3.87;2.47;;;;;;;-143.99;100.00;64180.81;6143446;28;20239;-76
2023/04/26 03:35:11;;;;;;;2.53;1.60;;;;;;;-143.99;100.00;64180.81;6142927;28;20504;-75
2023/04/26 03:38:33;;;;;;;1.30;1.20;;;;;;;-143.99;100.00;64180.81;6137349;28;20235;-75
2023/04/26 03:41:54;;;;;;;2.87;1.83;;;;;;;-143.99;100.00;64180.81;6137173;28;20239;-74
2023/04/26 03:45:16;;;;;;;1.47;1.37;;;;;;;-143.99;100.00;64180.81;6141250;28;20250;-74
2023/04/26 03:48:37;;;;;;;2.53;1.67;;;;;;;-143.99;100.00;64180.81;6126153;28;20521;-75
2023/04/26 03:51:58;;;;;;;2.60;1.80;;;;;;;-143.99;100.00;64180.81;6142624;28;20730;-75
2023/04/26 03:55:21;;;;;;;1.87;1.77;;;;;;;-143.99;100.00;64180.81;6134842;28;20238;-75
2023/04/26 03:58:42;;;;;;;2.70;1.87;;;;;;;-143.99;100.00;64180.81;6130946;28;20238;-75
2023/04/26 04:02:03;;;;;;;1.43;1.13;;;;;;;-143.99;100.00;64180.81;6128715;28;20240;-75
2023/04/26 04:05:25;;;;;;;1.83;1.73;;;;;;;-143.99;100.00;64180.81;6136635;28;20535;-77
2023/04/26 04:08:46;;;;;;;3.10;2.03;;;;;;;-143.99;100.00;64180.81;6143139;28;20242;-76
2023/04/26 04:12:08;;;;;;;2.37;1.60;;;;;;;-143.99;100.00;64180.81;6141723;28;20235;-74
2023/04/26 04:15:29;;;;;;;1.07;0.90;;;;;;;-143.99;100.00;64180.81;6127949;28;20787;-76
2023/04/26 04:18:51;;;;;;;6.17;1.50;;;;;;;-143.99;100.00;64180.81;6143514;28;20243;-75
2023/04/26 04:22:12;;;;;;;4.07;2.57;;;;;;;-143.99;100.00;64180.81;6135768;28;20235;-76
2023/04/26 04:25:34;;;;;;;1.90;1.60;;;;;;;-143.99;100.00;64180.81;6143324;28;20234;-76
2023/04/26 04:29:07;;;;;;;3.60;1.67;;;;;;;-143.99;100.00;64180.81;6140296;28;20238;-75
2023/04/26 04:32:28;;;;;;;8.63;3.13;;;;;;;-143.99;100.00;64180.81;6144714;28;20238;-75
2023/04/26 04:35:49;;;;;;;4.07;2.80;;;;;;;-143.99;100.00;64180.81;6132754;28;20238;-74
2023/04/26 04:39:14;;;;;;;3.90;2.10;;;;;;;-143.99;100.00;64180.81;6130276;28;20249;-76
2023/04/26 04:42:37;;;;;;;4.87;2.57;;;;;;;-143.99;100.00;64180.81;6137923;28;20235;-75
2023/04/26 04:46:02;;;;;;;2.90;1.70;;;;;;;-143.99;100.00;64180.81;6133038;28;20243;-75
2023/04/26 04:49:23;;;;;;;3.53;2.10;;;;;;;-143.99;100.00;64180.81;6145845;28;20735;-75
2023/04/26 04:52:44;;;;;;;3.07;1.77;;;;;;;-143.99;100.00;64180.81;6146654;28;20242;-75
2023/04/26 04:56:06;;;;;;;2.83;2.13;;;;;;;-143.99;100.00;64180.81;6110107;28;20235;-75
2023/04/26 04:59:28;;;;;;;2.13;1.77;;;;;;;-143.99;100.00;64180.81;6119489;28;20226;-76
2023/04/26 05:02:50;;;;;;;4.13;2.10;;;;;;;-143.99;100.00;64180.81;6131281;28;20509;-75
2023/04/26 05:06:11;;;;;;;2.63;2.13;;;;;;;-143.99;100.00;64180.81;6116974;28;20784;-75
2023/04/26 05:09:32;;;;;;;5.73;2.53;;;;;;;-143.99;100.00;64180.81;6130753;28;20223;-76
2023/04/26 05:12:53;;;;;;;4.67;1.80;;;;;;;-143.99;100.00;64180.81;6145203;28;20372;-77
2023/04/26 05:16:14;;;;;;;4.13;1.90;;;;;;;-143.99;100.00;64180.81;6118031;28;20318;-76
2023/04/26 05:19:37;;;;;;;6.83;3.23;;;;;;;-143.99;100.00;64180.81;6121870;28;20235;-69
2023/04/26 05:22:58;;;;;;;2.10;1.93;;;;;;;-143.99;100.00;64180.81;6119952;28;20235;-69
2023/04/26 05:26:19;;;;;;;1.53;1.43;;;;;;;-143.99;100.00;64180.81;6145034;28;20227;-70
2023/04/26 05:29:51;;;;;;;2.73;2.53;;;;;;;-143.99;100.00;64180.81;6134716;28;20234;-72
2023/04/26 05:33:21;;;;;;;2.93;2.70;;;;;;;-143.99;100.00;64180.81;6131181;28;20629;-73
2023/04/26 05:37:04;;;;;;;7.57;1.90;;;;;;;-143.99;100.00;64180.81;6131666;28;20231;-73
2023/04/26 05:40:25;;;;;;;11.67;2.03;;;;;;;-143.99;100.00;64180.81;6130656;28;20231;-72
2023/04/26 05:43:47;;;;;;;4.20;2.37;;;;;;;-143.99;100.00;64180.81;6137867;28;20648;-72
2023/04/26 05:47:08;;;;;;;2.90;1.83;;;;;;;-143.99;100.00;64180.81;6125765;28;20231;-70
2023/04/26 05:50:30;;;;;;;3.00;2.73;;;;;;;-143.99;100.00;64180.81;6122507;28;20321;-69
2023/04/26 05:53:52;;;;;;;7.73;1.67;;;;;;;-143.99;100.00;64180.81;6130339;28;20226;-70
2023/04/26 05:57:13;;;;;;;2.53;2.03;;;;;;;-143.99;100.00;64180.81;6131121;28;20670;-70
2023/04/26 06:00:34;;;;;;;5.13;1.90;;;;;;;-143.99;100.00;64180.81;6120789;28;20634;-69
2023/04/26 06:03:55;;;;;;;2.00;1.80;;;;;;;-143.99;100.00;64180.81;6101509;28;20223;-72
2023/04/26 06:07:17;;;;;;;4.47;2.10;;;;;;;-143.99;100.00;64180.81;6110927;28;20232;-69
2023/04/26 06:10:42;;;;;;;2.30;1.87;;;;;;;-143.99;100.00;64180.81;6125566;28;20875;-70
2023/04/26 06:14:02;;;;;;;5.73;2.20;;;;;;;-143.99;100.00;64180.81;6121527;28;20235;-70
2023/04/26 06:17:24;;;;;;;9.00;3.50;;;;;;;-143.99;100.00;64180.81;6108486;28;20396;-69
2023/04/26 06:20:46;;;;;;;3.10;2.20;;;;;;;-143.99;100.00;64180.81;6126908;28;20235;-71
2023/04/26 06:24:08;;;;;;;4.93;3.03;;;;;;;-143.99;100.00;64180.81;6134273;28;20235;-68
2023/04/26 06:27:32;;;;;;;7.13;2.43;;;;;;;-143.99;100.00;64180.81;6133471;28;20226;-70
2023/04/26 06:30:53;;;;;;;4.00;1.93;;;;;;;-143.99;100.00;64180.81;6115996;28;20243;-69
2023/04/26 06:34:15;;;;;;;3.67;1.57;;;;;;;-143.99;100.00;64180.81;6144486;28;20238;-69
2023/04/26 06:37:37;;;;;;;3.13;2.13;;;;;;;-143.99;100.00;64180.81;6129309;28;20254;-70
2023/04/26 06:40:58;;;;;;;2.77;2.57;;;;;;;-143.99;100.00;64180.81;6127905;28;20220;-71
2023/04/26 06:44:20;;;;;;;3.60;2.70;;;;;;;-143.99;100.00;64180.81;6142603;28;20234;-72
2023/04/26 06:47:41;;;;;;;5.30;2.40;;;;;;;-143.99;100.00;64180.81;6137298;28;20329;-69
2023/04/26 06:51:05;;;;;;;3.60;1.73;;;;;;;-143.99;100.00;64180.81;6141355;28;21060;-69
2023/04/26 06:54:28;;;;;;;7.57;4.53;;;;;;;-143.99;100.00;64180.81;6139366;28;20226;-70
2023/04/26 06:57:50;;;;;;;6.47;1.83;;;;;;;-143.99;100.00;64180.81;6134689;28;20234;-71
2023/04/26 07:01:12;;;;;;;6.73;2.30;;;;;;;-143.99;100.00;64180.81;6132799;28;20246;-69
2023/04/26 07:04:33;;;;;;;5.80;2.13;;;;;;;-143.99;100.00;64180.81;6136560;28;20650;-73
2023/04/26 07:07:54;;;;;;;2.93;1.80;;;;;;;-143.99;100.00;64180.81;6133230;28;20322;-73
2023/04/26 07:11:15;;;;;;;3.27;2.43;;;;;;;-143.99;100.00;64180.81;6133151;28;20326;-73
2023/04/26 07:14:39;;;;;;;3.50;2.17;;;;;;;-143.99;100.00;64180.81;6138469;28;20227;-72
2023/04/26 07:18:01;;;;;;;2.90;1.90;;;;;;;-143.99;100.00;64180.81;6143595;28;20227;-72
2023/04/26 07:21:22;;;;;;;4.57;1.90;;;;;;;-143.99;100.00;64180.81;6113125;28;20239;-69
2023/04/26 07:24:43;;;;;;;2.30;2.10;;;;;;;-143.99;100.00;64180.81;6131017;28;20253;-70
2023/04/26 07:28:04;;;;;;;2.70;2.00;;;;;;;-143.99;100.00;64180.81;6145043;28;20242;-70
2023/04/26 07:31:25;;;;;;;2.40;2.10;;;;;;;-143.99;100.00;64180.81;6143216;28;20891;-70
2023/04/26 07:34:47;;;;;;;3.60;1.90;;;;;;;-143.99;100.00;64180.81;6140348;28;20249;-70
2023/04/26 07:38:09;;;;;;;4.23;2.77;;;;;;;-143.99;100.00;64180.81;6139410;28;20220;-72
2023/04/26 07:41:30;;;;;;;4.33;2.00;;;;;;;-143.99;100.00;64180.81;6135308;28;20641;-71
2023/04/26 07:44:52;;;;;;;6.00;2.00;;;;;;;-143.99;100.00;64180.81;6136574;28;20226;-71
2023/04/26 07:48:13;;;;;;;2.30;2.07;;;;;;;-143.99;100.00;64180.81;6128741;28;20322;-72
2023/04/26 07:51:36;;;;;;;2.40;1.50;;;;;;;-143.99;100.00;64180.81;6148727;28;20231;-71
2023/04/26 07:54:57;;;;;;;6.43;2.13;;;;;;;-143.99;100.00;64180.81;6138925;28;20613;-71
2023/04/26 07:58:20;;;;;;;3.63;2.30;;;;;;;-143.99;100.00;64180.81;6123447;28;20227;-69
2023/04/26 08:01:41;;;;;;;2.20;1.60;;;;;;;-143.99;100.00;64180.81;6146100;28;20238;-70
2023/04/26 08:05:02;;;;;;;1.70;1.60;;;;;;;-143.99;100.00;64180.81;6134045;28;20227;-70
2023/04/26 08:08:25;;;;;;;3.37;1.70;;;;;;;-143.99;100.00;64180.81;6122103;28;20227;-73
2023/04/26 08:11:46;;;;;;;2.63;1.37;;;;;;;-143.99;100.00;64180.81;6142210;28;20625;-70
2023/04/26 08:15:08;;;;;;;1.00;0.90;;;;;;;-143.99;100.00;64180.81;6140307;28;20246;-70
2023/04/26 08:18:28;;;;;;;3.03;1.63;;;;;;;-143.99;100.00;64180.81;6122582;28;20219;-71
2023/04/26 08:21:49;;;;;;;1.97;1.60;;;;;;;-143.99;100.00;64180.81;6142569;28;20234;-72
2023/04/26 08:25:12;;;;;;;2.27;1.60;;;;;;;-143.99;100.00;64180.81;6133561;28;21947;-69
2023/04/26 08:28:34;;;;;;;1.20;1.20;;;;;;;-143.99;100.00;64180.81;6128782;28;20240;-68
2023/04/26 08:31:55;;;;;;;5.80;1.50;;;;;;;-143.99;100.00;64180.81;6131063;28;20244;-68
2023/04/26 08:35:16;;;;;;;1.33;1.23;;;;;;;-143.99;100.00;64180.81;6137302;28;20741;-71
2023/04/26 08:38:37;;;;;;;1.97;1.50;;;;;;;-143.99;100.00;64180.81;6128666;28;20227;-74
2023/04/26 08:42:07;;;;;;;2.63;1.40;;;;;;;-143.99;100.00;64180.81;6143066;28;20247;-72
2023/04/26 08:45:27;;;;;;;3.23;1.57;;;;;;;-143.99;100.00;64180.81;6133656;28;20218;-72
2023/04/26 08:48:59;;;;;;;2.63;2.07;;;;;;;-143.99;100.00;64180.81;6131673;28;20223;-70
2023/04/26 08:52:22;;;;;;;5.70;1.50;;;;;;;-143.99;100.00;64180.81;6138104;28;20534;-71
2023/04/26 08:55:47;;;;;;;3.40;2.30;;;;;;;-143.99;100.00;64180.81;6139315;28;20329;-71
2023/04/26 08:59:09;;;;;;;2.00;1.83;;;;;;;-143.99;100.00;64180.81;6130924;28;20589;-74
2023/04/26 09:02:30;;;;;;;1.70;1.60;;;;;;;-143.99;100.00;64180.81;6131896;28;20234;-72
2023/04/26 09:05:53;;;;;;;3.43;1.43;;;;;;;-143.99;100.00;64180.81;6130090;28;20721;-72
2023/04/26 09:09:18;;;;;;;4.90;3.57;;;;;;;-143.99;100.00;64180.81;6129529;28;20237;-71
2023/04/26 09:12:40;;;;;;;8.40;3.17;;;;;;;-143.99;100.00;64180.81;6149783;28;20231;-71
2023/04/26 09:16:03;;;;;;;1.80;1.70;;;;;;;-143.99;100.00;64180.81;6143424;28;20235;-72
2023/04/26 09:19:37;;;;;;;2.80;1.63;;;;;;;-143.99;100.00;64180.81;6128303;28;20238;-72
2023/04/26 09:23:05;;;;;;;1.90;1.80;;;;;;;-143.99;100.00;64180.81;6146677;28;20226;-71
2023/04/26 09:26:25;;;;;;;9.17;1.77;;;;;;;-143.99;100.00;64180.81;6137316;28;20315;-72
2023/04/26 09:30:05;;;;;;;3.33;2.33;;;;;;;-143.99;100.00;64180.81;6146224;28;20257;-72
2023/04/26 09:33:27;;;;;;;1.53;1.43;;;;;;;-143.99;100.00;64180.81;6133878;28;20227;-72
2023/04/26 09:36:50;;;;;;;2.70;1.90;;;;;;;-143.99;100.00;64180.81;6154268;28;20235;-72
2023/04/26 09:40:18;;;;;;;1.40;1.10;;;;;;;-143.99;100.00;64180.81;6144434;28;20712;-73
2023/04/26 09:43:39;;;;;;;2.33;1.77;;;;;;;-143.99;100.00;64180.81;6133622;28;20277;-71
2023/04/26 09:47:02;;;;;;;1.00;0.83;;;;;;;-143.99;100.00;64180.81;6150547;28;20227;-72
2023/04/26 09:50:29;;;;;;;1.47;1.23;;;;;;;-143.99;100.00;64180.81;6146676;28;20230;-71
2023/04/26 09:53:50;;;;;;;2.40;1.10;;;;;;;-143.99;100.00;64180.81;6133126;28;20579;-72
2023/04/26 09:57:11;;;;;;;2.63;0.80;;;;;;;-143.99;100.00;64180.81;6152002;28;20237;-72
2023/04/26 10:00:32;;;;;;;7.87;1.77;;;;;;;-143.99;100.00;64180.81;6137740;28;20238;-72
2023/04/26 10:03:53;;;;;;;1.30;1.20;;;;;;;-143.99;100.00;64180.81;6129085;28;20230;-72
2023/04/26 10:07:17;;;;;;;1.20;1.10;;;;;;;-143.99;100.00;64180.81;6152119;28;20231;-71
2023/04/26 10:10:40;;;;;;;1.03;0.90;;;;;;;-143.99;100.00;64180.81;6148694;28;20224;-72
2023/04/26 10:14:01;;;;;;;0.70;0.70;;;;;;;-143.99;100.00;64180.81;6136237;28;20228;-73
2023/04/26 10:17:22;;;;;;;1.00;1.00;;;;;;;-143.99;100.00;64180.81;6139166;28;20227;-72
2023/04/26 10:20:48;;;;;;;2.33;1.10;;;;;;;-143.99;100.00;64180.81;6158532;28;20238;-71
2023/04/26 10:24:11;;;;;;;1.33;1.23;;;;;;;-143.99;100.00;64180.81;6139958;28;20600;-71
2023/04/26 10:27:51;;;;;;;4.77;1.43;;;;;;;-143.99;100.00;64180.81;6150446;28;20659;-71
2023/04/26 10:31:12;;;;;;;1.40;1.30;;;;;;;-143.99;100.00;64180.81;6136786;28;20307;-71
2023/04/26 10:34:35;;;;;;;1.50;1.33;;;;;;;-143.99;100.00;64180.81;6128832;28;20222;-73
2023/04/26 10:38:08;;;;;;;4.10;1.17;;;;;;;-143.99;100.00;64180.81;6126779;28;20235;-70
2023/04/26 10:41:36;;;;;;;1.73;1.50;;;;;;;-143.99;100.00;64180.81;6125093;28;20234;-71
2023/04/26 10:44:57;;;;;;;5.50;2.10;;;;;;;-143.99;100.00;64180.81;6137700;28;20498;-71
2023/04/26 10:48:20;;;;;;;1.40;1.30;;;;;;;-143.99;100.00;64180.81;6131172;28;20510;-71
2023/04/26 10:51:41;;;;;;;1.63;0.87;;;;;;;-143.99;100.00;64180.81;6143032;28;20264;-73
2023/04/26 10:55:04;;;;;;;4.23;1.47;;;;;;;-143.99;100.00;64180.81;6138215;28;20246;-70
2023/04/26 10:58:29;;;;;;;1.30;1.10;;;;;;;-143.99;100.00;64180.81;6126112;28;20318;-72
2023/04/26 11:01:52;;;;;;;2.00;1.43;;;;;;;-143.99;100.00;64180.81;6157382;28;20223;-71
2023/04/26 11:05:33;;;;;;;0.70;0.70;;;;;;;-143.99;100.00;64180.81;6142461;28;20238;-72
2023/04/26 11:08:54;;;;;;;1.30;1.20;;;;;;;-143.99;100.00;64180.81;6129469;28;20357;-69
2023/04/26 11:12:16;;;;;;;1.80;1.10;;;;;;;-143.99;100.00;64180.81;6138924;28;20239;-73
2023/04/26 11:15:38;;;;;;;4.43;1.67;;;;;;;-143.99;100.00;64180.81;6140091;28;20617;-71
2023/04/26 11:18:59;;;;;;;1.37;1.10;;;;;;;-143.99;100.00;64180.81;6125260;28;20238;-71
2023/04/26 11:22:22;;;;;;;5.50;1.40;;;;;;;-143.99;100.00;64180.81;6140489;28;20242;-75
2023/04/26 11:25:44;;;;;;;4.13;1.10;;;;;;;-143.99;100.00;64180.81;6136042;28;20240;-75
2023/04/26 11:29:08;;;;;;;0.90;0.90;;;;;;;-143.99;100.00;64180.81;6127119;28;20235;-69
2023/04/26 11:32:30;;;;;;;1.53;1.30;;;;;;;-143.99;100.00;64180.81;6134209;28;20231;-69
2023/04/26 11:35:53;;;;;;;2.20;2.03;;;;;;;-143.99;100.00;64180.81;6143517;28;20326;-72
2023/04/26 11:39:14;;;;;;;3.67;1.60;;;;;;;-143.99;100.00;64180.81;6134061;28;20426;-75
2023/04/26 11:42:35;;;;;;;1.63;1.33;;;;;;;-143.99;100.00;64180.81;6139254;28;20239;-73
2023/04/26 11:45:59;;;;;;;1.37;0.70;;;;;;;-143.99;100.00;64180.81;6126875;28;20235;-69
2023/04/26 11:49:21;;;;;;;2.43;1.13;;;;;;;-143.99;100.00;64180.81;6130118;28;20250;-75
2023/04/26 11:52:42;;;;;;;14.70;2.00;;;;;;;-143.99;100.00;64180.81;6134896;28;20243;-73
2023/04/26 11:56:04;;;;;;;1.20;0.63;;;;;;;-143.99;100.00;64180.81;6137140;28;20235;-73
2023/04/26 11:59:25;;;;;;;1.33;1.03;;;;;;;-143.99;100.00;64180.81;6136903;28;20234;-74
2023/04/26 12:02:47;;;;;;;0.97;0.97;;;;;;;-143.99;100.00;64180.81;6140194;28;20914;-73
2023/04/26 12:06:10;;;;;;;1.50;1.20;;;;;;;-143.99;100.00;64180.81;6131384;28;20231;-74
2023/04/26 12:09:31;;;;;;;1.37;0.83;;;;;;;-143.99;100.00;64180.81;6128247;28;20237;-75
2023/04/26 12:12:53;;;;;;;3.43;0.90;;;;;;;-143.99;100.00;64180.81;6135278;28;20261;-73
2023/04/26 12:16:15;;;;;;;1.60;0.90;;;;;;;-143.99;100.00;64180.81;6122353;28;20227;-73
2023/04/26 12:19:36;;;;;;;1.13;0.80;;;;;;;-143.99;100.00;64180.81;6136456;28;20226;-73
2023/04/26 12:23:02;;;;;;;2.17;1.43;;;;;;;-143.99;100.00;64180.81;6132291;28;20231;-73
2023/04/26 12:26:41;;;;;;;2.13;0.80;;;;;;;-143.99;100.00;64180.81;6134630;28;20242;-69
2023/04/26 12:30:02;;;;;;;1.37;0.77;;;;;;;-143.99;100.00;64180.81;6139557;28;20416;-72
2023/04/26 12:33:24;;;;;;;5.20;1.33;;;;;;;-143.99;100.00;64180.81;6130624;28;20265;-73
2023/04/26 12:36:45;;;;;;;2.43;0.90;;;;;;;-143.99;100.00;64180.81;6143161;28;20246;-70
2023/04/26 12:40:09;;;;;;;2.35;1.33;;;;;;;-143.99;100.00;64180.81;6141145;28;20239;-71
2023/04/26 12:43:30;;;;;;;5.50;1.47;;;;;;;-143.99;100.00;64180.81;6127296;28;20238;-69
2023/04/26 12:46:51;;;;;;;2.73;1.07;;;;;;;-143.99;100.00;64180.81;6143727;28;20247;-72
2023/04/26 12:50:12;;;;;;;4.20;1.90;;;;;;;-143.99;100.00;64180.81;6126356;28;20380;-72
2023/04/26 12:53:34;;;;;;;1.97;0.87;;;;;;;-143.99;100.00;64180.81;6134937;28;20246;-72
2023/04/26 12:56:56;;;;;;;1.60;0.90;;;;;;;-143.99;100.00;64180.81;6148300;28;20670;-69
2023/04/26 13:00:17;;;;;;;5.63;1.10;;;;;;;-143.99;100.00;64180.81;6131395;28;20314;-68
2023/04/26 13:03:39;;;;;;;1.10;0.90;;;;;;;-143.99;100.00;64180.81;6126918;28;20621;-70
2023/04/26 13:07:00;;;;;;;2.57;0.90;;;;;;;-143.99;100.00;64180.81;6146840;28;20617;-69
2023/04/26 13:10:21;;;;;;;1.20;1.10;;;;;;;-143.99;100.00;64180.81;6138167;28;20226;-69
2023/04/26 13:13:43;;;;;;;0.70;0.70;;;;;;;-143.99;100.00;64180.81;6134095;28;20328;-74
2023/04/26 13:17:04;;;;;;;1.83;1.40;;;;;;;-143.99;100.00;64180.81;6137284;28;20633;-71
2023/04/26 13:20:26;;;;;;;2.03;1.30;;;;;;;-143.99;100.00;64180.81;6139817;28;20325;-70
2023/04/26 13:23:46;;;;;;;0.77;0.60;;;;;;;-143.99;100.00;64180.81;6125031;28;20506;-71
2023/04/26 13:27:08;;;;;;;3.10;0.60;;;;;;;-143.99;100.00;64180.81;6138270;28;20240;-71
2023/04/26 13:30:31;;;;;;;2.23;1.30;;;;;;;-143.99;100.00;64180.81;6143017;28;20227;-71
2023/04/26 13:33:51;;;;;;;0.83;0.80;;;;;;;-143.99;100.00;64180.81;6134773;28;20234;-71
2023/04/26 13:37:13;;;;;;;5.50;1.17;;;;;;;-143.99;100.00;64180.81;6142798;28;20260;-70
2023/04/26 13:40:34;;;;;;;1.33;0.93;;;;;;;-143.99;100.00;64180.81;6142357;28;20516;-71
2023/04/26 13:43:55;;;;;;;5.50;1.07;;;;;;;-143.99;100.00;64180.81;6130093;28;20305;-72
2023/04/26 13:47:17;;;;;;;1.50;0.80;;;;;;;-143.99;100.00;64180.81;6146523;28;20235;-69
2023/04/26 13:50:38;;;;;;;2.40;1.93;;;;;;;-143.99;100.00;64180.81;6143750;28;20227;-70
2023/04/26 13:53:59;;;;;;;1.87;0.70;;;;;;;-143.99;100.00;64180.81;6124794;28;20254;-71
2023/04/26 13:57:20;;;;;;;1.90;0.90;;;;;;;-143.99;100.00;64180.81;6153543;28;20243;-70
2023/04/26 14:00:42;;;;;;;4.47;1.57;;;;;;;-143.99;100.00;64180.81;6142385;28;20231;-70
2023/04/26 14:04:04;;;;;;;1.90;0.80;;;;;;;-143.99;100.00;64180.81;6126680;28;20796;-74
2023/04/26 14:07:25;;;;;;;0.83;0.63;;;;;;;-143.99;100.00;64180.81;6141807;28;20223;-73
2023/04/26 14:10:45;;;;;;;2.93;0.77;;;;;;;-143.99;100.00;64180.81;6142567;28;20255;-78
2023/04/26 14:14:06;;;;;;;1.70;1.17;;;;;;;-143.99;100.00;64180.81;6135310;28;20238;-73
2023/04/26 14:17:27;;;;;;;3.57;1.33;;;;;;;-143.99;100.00;64180.81;6141618;28;20235;-73
2023/04/26 14:20:50;;;;;;;1.27;0.60;;;;;;;-143.99;100.00;64180.81;6129832;28;20239;-73
2023/04/26 14:24:11;;;;;;;1.37;0.90;;;;;;;-143.99;100.00;64180.81;6134907;28;20227;-74
2023/04/26 14:27:32;;;;;;;0.70;0.70;;;;;;;-143.99;100.00;64180.81;6142446;28;20770;-74
2023/04/26 14:30:53;;;;;;;1.43;0.80;;;;;;;-143.99;100.00;64180.81;6135533;28;20235;-71
2023/04/26 14:34:14;;;;;;;5.30;0.90;;;;;;;-143.99;100.00;64180.81;6130722;28;20234;-72
2023/04/26 14:37:37;;;;;;;2.20;1.80;;;;;;;-143.99;100.00;64180.81;6137602;28;20227;-73
2023/04/26 14:40:58;;;;;;;1.37;0.87;;;;;;;-143.99;100.00;64180.81;6139545;28;20516;-70
2023/04/26 14:44:18;;;;;;;0.70;0.70;;;;;;;-143.99;100.00;64180.81;6134192;28;20235;-70
2023/04/26 14:47:39;;;;;;;1.77;1.03;;;;;;;-143.99;100.00;64180.81;6143500;28;20612;-70
2023/04/26 14:51:00;;;;;;;1.57;1.47;;;;;;;-143.99;100.00;64180.81;6141358;28;20676;-75
2023/04/26 14:54:23;;;;;;;3.20;0.90;;;;;;;-143.99;100.00;64180.81;6125728;28;20234;-76
2023/04/26 14:57:44;;;;;;;1.20;1.10;;;;;;;-143.99;100.00;64180.81;6141288;28;20264;-75
2023/04/26 15:01:06;;;;;;;2.67;1.33;;;;;;;-143.99;100.00;64180.81;6119032;28;20243;-77
2023/04/26 15:04:27;;;;;;;1.10;1.03;;;;;;;-143.99;100.00;64180.81;6119498;28;20756;-77
2023/04/26 15:07:47;;;;;;;1.30;0.70;;;;;;;-143.99;100.00;64180.81;6139681;28;20231;-76
2023/04/26 15:11:10;;;;;;;1.07;0.70;;;;;;;-143.99;100.00;64180.81;6135905;28;20235;-75
2023/04/26 15:14:31;;;;;;;2.40;1.63;;;;;;;-143.99;100.00;64180.81;6141829;28;20234;-77
2023/04/26 15:17:52;;;;;;;3.13;1.60;;;;;;;-143.99;100.00;64180.81;6135991;28;20235;-78
2023/04/26 15:21:16;;;;;;;1.20;1.10;;;;;;;-143.99;100.00;64180.81;6145812;28;20239;-74